Kelso, WA (98626)

12:56 PM PDT on August 20, 2014 (GMT -0700)
Hall of Justice | Change Station
CLOSE
Current Station
Personal Weather Station
Location: Kelso, WA
Elevation: 25 ft
Nearby Weather Stations

Elev 25 ft 46.14 °N, 122.92 °W | Updated 3 minutes ago

Overcast
Overcast
67.1 °F
Feels Like 67.1 °F
N
0.0
Wind Variable Wind from WNW
Gusts 0.0 mph

Today
High -- | Low -- °F
--% Chance of Precip.
Yesterday
High -- | Low -- °F
Precip. -- in
6:17 AM 8:11 PM
Waning Crescent, 19% visible
Pressure 30.02 in
Visibility 10.0 miles
Clouds Mostly Cloudy 4200 ft
Overcast 4900 ft
Dew Point 50 °F
Humidity 55%
Rainfall 0.00 in
Snow Depth Not available.
UV 3 out of 12
Pollen 3.70 out of 12
Air Quality Not available.
Flu Activity Not available.
METAR KKLS 201935Z AUTO 00000KT 10SM BKN042 OVC049 20/09 A3002 RMK AO1

More Conditions Fewer Conditions

Pressure 30.02 in
Visibility 10.0 miles
Clouds Mostly Cloudy 4200 ft
Overcast 4900 ft
Dew Point 50 °F
Humidity 55%
Rainfall 0.00 in
Snow Depth Not available.
UV 3 out of 12
Pollen 3.70 out of 12
Air Quality Not available.
Flu Activity Not available.
METAR KKLS 201935Z AUTO 00000KT 10SM BKN042 OVC049 20/09 A3002 RMK AO1

More Conditions Fewer Conditions

10-Day Weather Forecast

Almanac

Astronomy

Aug. 20, 2014 Rise Set
Actual Time 6:17 AM PDT 8:11 PM PDT
Civil Twilight 5:44 AM PDT 8:43 PM PDT
Nautical Twilight 5:05 AM PDT 9:23 PM PDT
Astronomical Twilight 4:21 AM PDT 10:06 PM PDT
Moon 1:55 AM PDT 5:06 PM PDT
Length of Visible Light 14h 58m
Length of Day
13h 54m
Tomorrow will be 3m 0s shorter.
Waning Crescent, 19% of the Moon is Illuminated
Today
Waning Crescent
Aug 25
New
Sep 2
First Quarter
Sep 8
Full
Sep 15
Last Quarter

Today's Extremes

State Highs State Lows

Community

WunderPhotos

Upload Photos

1,745,727 photos uploaded!

WunderBlogs® & News

By Dr. Jeff Masters
Director of Meteorology, Weather Underground
By Kari Strenfel
Meteorologist, Weather Underground
By Christopher C. Burt
Weather Historian, Weather Underground
August 20, 2014
August 20, 2014
August 20, 2014

Nearby

Snow Depth

Station Depth Elevation
Swift Creek 0 in 3770 ft
Spirit Lake 0 in 3120 ft
June Lake 0 in 3340 ft
Lone Pine 0 in 3800 ft
Spencer Meadow 0 in 3400 ft

Earthquake Activity

City Distance Mag. Time & Date
No recent earthquake activity has been reported nearby.
Minimum magnitude displayed is 2.5.

Coastal Water Temperatures

Place Temperature
Astoria, OR 69.1 °F
Westport, WA 55.0 °F

Nearby Weather Stations